CT1ETE Guimaraes PT current weather conditions

sailwx.info

Wind from 153

Air temperature 20.6° C
Dewpoint 15.1° C

Last reported at 2019-Aug-23 23:00 UTC.
Time now 2019-Aug-23 23:58 UTC

Location: N 41°27' W 008°16'.
View on Google Maps.

See reports from other nearby stations

  
Tides and Currents Weather Stations Pressure Air Temp Water Temp Dewpoint Dewpoint Depression Visibility Wind Speed Wind Dir Waves Ship Positions
date/time (UTC)wind fromknots sea level pressurealtimeterstation pressurevisibilityair tempwater tempwave heightnotes
2019-Aug-23 23:00 153 20.6
2019-Aug-23 22:45 176 20.6
2019-Aug-23 22:30 176 21.1
2019-Aug-23 22:15 176 21.1
2019-Aug-23 22:00 235 21.1
2019-Aug-23 21:45 234 21.7
2019-Aug-23 21:30 234 21.7
2019-Aug-23 21:15 234 22.2
2019-Aug-23 21:00 234 22.2
2019-Aug-23 20:45 234 22.8
2019-Aug-23 20:30 234 22.8
2019-Aug-23 20:15 226 23.3
2019-Aug-23 20:00 226 0 gusting 4 23.3
2019-Aug-23 19:52 217 4 gusting 6 23.9
2019-Aug-23 19:45 217 4 gusting 6 23.9
2019-Aug-23 19:30 241 5 gusting 6 24.4
2019-Aug-23 19:15 213 3 gusting 8 25.0
2019-Aug-23 19:00 244 5 gusting 9 26.1
2019-Aug-23 18:45 227 4 gusting 9 26.7
2019-Aug-23 18:30 207 6 gusting 11 27.2
2019-Aug-23 18:15 229 8 gusting 12 27.8
2019-Aug-23 18:00 223 6 gusting 11 28.3
2019-Aug-23 17:45 235 7 gusting 12 28.3
2019-Aug-23 17:37 193 7 gusting 12 28.9
2019-Aug-23 17:30 193 7 gusting 12 28.9
2019-Aug-23 17:15 215 7 gusting 12 28.9
2019-Aug-23 17:00 221 9 gusting 14 29.4
2019-Aug-23 16:45 225 7 gusting 13 30.6
2019-Aug-23 16:30 231 5 gusting 11 31.1
2019-Aug-23 16:15 214 4 gusting 12 31.7
2019-Aug-23 16:07 222 4 gusting 13 31.7
2019-Aug-23 16:00 222 4 gusting 13 31.7
2019-Aug-23 15:45 219 6 gusting 13 31.7
2019-Aug-23 15:30 224 7 gusting 13 31.7
2019-Aug-23 15:22 242 7 gusting 13 31.7
2019-Aug-23 15:15 242 7 gusting 13 31.7
2019-Aug-23 15:00 230 6 gusting 12 32.2
2019-Aug-23 14:45 272 4 gusting 12 32.2
2019-Aug-23 14:37 257 6 gusting 13 32.2
2019-Aug-23 14:30 257 6 gusting 13 32.2
2019-Aug-23 14:15 244 4 gusting 12 32.2
2019-Aug-23 14:00 242 6 gusting 12 32.2
2019-Aug-23 13:45 229 5 gusting 13 32.2
2019-Aug-23 13:30 262 5 gusting 13 32.8
2019-Aug-23 13:15 214 1 gusting 12 32.2
2019-Aug-23 13:00 239 2 gusting 10 32.2
2019-Aug-23 12:45 208 2 gusting 7 31.7
2019-Aug-23 12:30 196 3 gusting 11 31.7
2019-Aug-23 12:15 234 3 gusting 9 31.7
2019-Aug-23 12:00 264 5 gusting 11 31.7
2019-Aug-23 11:45 238 5 gusting 11 31.7
2019-Aug-23 11:30 225 1 gusting 8 31.7
2019-Aug-23 11:15 230 31.7
2019-Aug-23 11:00 268 31.7
2019-Aug-23 10:45 333 31.7
2019-Aug-23 10:30 355 31.1
2019-Aug-23 10:15 040 30.0
2019-Aug-23 10:00 195 30.0
2019-Aug-23 09:52 040 30.0
2019-Aug-23 09:45 040 30.0
2019-Aug-23 09:30 119 3 gusting 10 28.9
2019-Aug-23 09:15 091 5 gusting 12 28.3
2019-Aug-23 09:00 087 6 gusting 13 27.8
2019-Aug-23 08:45 084 6 gusting 12 27.2
2019-Aug-23 08:30 090 5 gusting 9 26.7
2019-Aug-23 08:15 089 5 gusting 11 26.7
2019-Aug-23 08:00 093 6 gusting 12 25.6
2019-Aug-23 07:44 098 6 gusting 10 25.6
2019-Aug-23 07:29 109 1 gusting 8 25.0
2019-Aug-23 07:14 070 6 gusting 13 25.6
2019-Aug-23 06:59 075 5 gusting 10 25.6
2019-Aug-23 06:44 088 4 gusting 10 25.0
2019-Aug-23 06:29 088 6 gusting 11 25.0
2019-Aug-23 06:14 092 4 gusting 9 24.4
2019-Aug-23 05:59 074 0 gusting 9 24.4
2019-Aug-23 05:44 080 3 gusting 8 24.4
2019-Aug-23 05:29 093 0 gusting 7 25.0
2019-Aug-23 05:14 084 6 gusting 10 25.0
2019-Aug-23 04:59 096 0 gusting 7 25.0
2019-Aug-23 04:44 135 24.4
2019-Aug-23 04:29 102 25.6
2019-Aug-23 04:14 086 0 gusting 7 25.6
2019-Aug-23 03:59 115 2 gusting 8 26.1
2019-Aug-23 03:44 094 1 gusting 6 26.1
2019-Aug-23 03:29 096 25.6
2019-Aug-23 03:14 103 25.6
2019-Aug-23 03:07 112 25.6
2019-Aug-23 02:59 112 25.6
2019-Aug-23 02:44 086 25.6
2019-Aug-23 02:29 086 25.6
2019-Aug-23 02:14 086 25.6
2019-Aug-23 01:59 086 25.6
2019-Aug-23 01:44 079 26.1
2019-Aug-23 01:37 105 26.1
2019-Aug-23 01:29 105 26.1
2019-Aug-23 01:14 094 26.1
2019-Aug-23 00:59 086 26.1
2019-Aug-23 00:44 092 26.1
2019-Aug-23 00:29 102 26.1
2019-Aug-23 00:14 099 26.1
2019-Aug-22 23:59 107 26.7
2019-Aug-22 23:44 105 26.7
2019-Aug-22 23:29 130 26.1
2019-Aug-22 23:14 140 25.6
2019-Aug-22 22:59 140 26.1
2019-Aug-22 22:44 200 26.7
2019-Aug-22 22:29 200 26.7
2019-Aug-22 22:14 200 26.7
2019-Aug-22 21:59 200 26.7
2019-Aug-22 21:44 200 26.7
2019-Aug-22 21:29 200 26.7
2019-Aug-22 21:14 200 26.7
2019-Aug-22 20:59 200 26.7
2019-Aug-22 20:44 200 27.2
2019-Aug-22 20:29 205 27.8
2019-Aug-22 20:14 221 28.3
2019-Aug-22 19:59 221 28.3
2019-Aug-22 19:44 221 28.9
2019-Aug-22 19:29 262 29.4
2019-Aug-22 19:14 306 30.0
2019-Aug-22 18:59 306 30.6
2019-Aug-22 18:44 252 31.1
2019-Aug-22 18:29 246 31.7
2019-Aug-22 18:14 244 31.7
2019-Aug-22 17:59 249 3 gusting 9 32.2
2019-Aug-22 17:44 238 3 gusting 8 32.2
2019-Aug-22 17:29 261 5 gusting 12 32.8
2019-Aug-22 17:14 277 0 gusting 6 33.3
2019-Aug-22 16:59 069 33.3
2019-Aug-22 16:44 127 33.3
2019-Aug-22 16:29 111 33.9
2019-Aug-22 16:22 084 33.3
2019-Aug-22 16:14 084 33.3
2019-Aug-22 15:59 038 0 gusting 7 33.3
2019-Aug-22 15:44 238 33.9
2019-Aug-22 15:29 107 33.3
2019-Aug-22 15:14 005 0 gusting 9 32.8
2019-Aug-22 14:59 126 0 gusting 8 33.3
2019-Aug-22 14:44 257 33.3
2019-Aug-22 14:29 084 33.3
2019-Aug-22 14:14 175 32.8
2019-Aug-22 14:06 117 0 gusting 10 32.8
2019-Aug-22 13:59 117 0 gusting 10 32.8
2019-Aug-22 13:44 086 0 gusting 5 32.8
2019-Aug-22 13:29 005 0 gusting 11 32.2
2019-Aug-22 13:21 074 2 gusting 10 31.7
2019-Aug-22 13:14 074 2 gusting 10 31.7
2019-Aug-22 12:59 086 3 gusting 12 31.1
2019-Aug-22 12:44 062 4 gusting 12 31.1
2019-Aug-22 12:37 084 6 gusting 13 30.6
2019-Aug-22 12:29 059 1 gusting 10 31.1
2019-Aug-22 12:14 084 6 gusting 13 30.6
2019-Aug-22 11:59 086 7 gusting 15 30.0
2019-Aug-22 11:44 073 7 gusting 15 29.4
2019-Aug-22 11:29 061 6 gusting 13 29.4
2019-Aug-22 11:14 090 8 gusting 14 28.9
2019-Aug-22 10:59 055 8 gusting 13 28.3
2019-Aug-22 10:44 101 9 gusting 15 27.8
2019-Aug-22 10:29 084 11 gusting 17 27.2
2019-Aug-22 10:14 084 9 gusting 14 27.2
2019-Aug-22 09:59 065 8 gusting 16 26.7
2019-Aug-22 09:44 059 9 gusting 17 26.7
2019-Aug-22 09:29 079 9 gusting 16 26.1
2019-Aug-22 09:14 090 8 gusting 13 25.6
2019-Aug-22 08:59 070 8 gusting 14 25.6
2019-Aug-22 08:44 065 9 gusting 18 25.0
2019-Aug-22 08:29 078 9 gusting 18 25.0
2019-Aug-22 08:14 086 8 gusting 13 24.4
2019-Aug-22 07:59 090 8 gusting 13 24.4
2019-Aug-22 07:44 090 7 gusting 12 23.9
2019-Aug-22 07:29 076 7 gusting 11 23.9
2019-Aug-22 07:14 111 6 gusting 11 23.3
2019-Aug-22 06:59 098 9 gusting 14 23.3
2019-Aug-22 06:44 070 9 gusting 15 23.3
2019-Aug-22 06:29 082 8 gusting 13 22.8
2019-Aug-22 06:21 078 6 gusting 13 22.8
2019-Aug-22 06:14 078 6 gusting 13 22.8
2019-Aug-22 05:59 091 6 gusting 12 22.8
2019-Aug-22 05:51 074 9 gusting 14 23.3
2019-Aug-22 05:44 074 9 gusting 14 23.3
2019-Aug-22 05:29 105 8 gusting 13 23.3
2019-Aug-22 05:14 096 7 gusting 13 23.3
2019-Aug-22 05:06 087 6 gusting 14 23.3
2019-Aug-22 04:59 087 6 gusting 14 23.3
2019-Aug-22 04:44 101 9 gusting 16 23.3
2019-Aug-22 04:36 081 10 gusting 16 23.3
2019-Aug-22 04:29 081 10 gusting 16 23.3
2019-Aug-22 04:14 072 11 gusting 18 23.3
2019-Aug-22 03:59 088 11 gusting 17 23.3
2019-Aug-22 03:44 075 8 gusting 13 23.3
2019-Aug-22 03:29 123 4 gusting 10 22.8
2019-Aug-22 03:14 103 5 gusting 12 22.8
2019-Aug-22 02:59 066 6 gusting 13 23.3
2019-Aug-22 02:44 100 9 gusting 13 22.8
2019-Aug-22 02:29 089 6 gusting 11 22.8
2019-Aug-22 02:21 065 1 gusting 10 23.3
2019-Aug-22 02:14 065 1 gusting 10 23.3
2019-Aug-22 01:59 050 6 gusting 9 23.3
2019-Aug-22 01:51 092 2 gusting 9 23.3
2019-Aug-22 01:44 092 2 gusting 9 23.3
2019-Aug-22 01:36 096 0 gusting 6 23.3
2019-Aug-22 01:29 096 0 gusting 6 23.3
2019-Aug-22 01:21 100 1 gusting 8 23.3
2019-Aug-22 01:14 100 1 gusting 8 23.3
2019-Aug-22 00:59 113 2 gusting 7 23.3
2019-Aug-22 00:44 132 3 gusting 9 23.3
2019-Aug-22 00:29 108 3 gusting 8 23.3
2019-Aug-22 00:14 111 5 gusting 9 23.3
2019-Aug-21 23:59 124 4 gusting 9 23.3
2019-Aug-21 23:44 123 3 gusting 7 23.9
2019-Aug-21 23:29 105 4 gusting 9 23.9
2019-Aug-21 23:14 128 3 gusting 8 23.9